Time;durP1;ratioP1;P1;durP2;ratioP2;P2;SDS_P1;SDS_P2;PMS_P1;PMS_P2;Temp;Humidity;BMP_temperature;BMP_pressure;BME280_temperature;BME280_humidity;BME280_pressure;Samples;Min_cycle;Max_cycle;Signal;HPM_P1;HPM_P2
2021/06/02 00:01:11;;;;;;;2.70;2.13;;;20.60;45.70;;;;;;4990167;28;20096;-87
2021/06/02 00:03:39;;;;;;;2.08;1.70;;;20.50;45.80;;;;;;4982359;28;20042;-86
2021/06/02 00:06:05;;;;;;;3.35;2.00;;;20.40;45.80;;;;;;4978938;28;20030;-87
2021/06/02 00:08:33;;;;;;;2.63;1.98;;;20.40;46.20;;;;;;4985107;28;20019;-87
2021/06/02 00:11:00;;;;;;;3.72;2.17;;;20.30;46.40;;;;;;4980958;28;20034;-87
2021/06/02 00:13:34;;;;;;;2.65;2.08;;;20.20;46.50;;;;;;4982061;28;20113;-86
2021/06/02 00:16:00;;;;;;;2.78;2.13;;;20.10;46.80;;;;;;4968339;28;20023;-88
2021/06/02 00:18:26;;;;;;;3.25;2.20;;;20.00;47.10;;;;;;4986048;28;20023;-87
2021/06/02 00:20:52;;;;;;;2.70;2.38;;;19.90;47.30;;;;;;4973990;28;20055;-85
2021/06/02 00:23:18;;;;;;;3.15;2.47;;;19.80;47.70;;;;;;4977398;28;20018;-85
2021/06/02 00:25:43;;;;;;;3.42;2.47;;;19.80;47.80;;;;;;4981362;28;20117;-86
2021/06/02 00:28:09;;;;;;;3.95;2.60;;;19.80;48.00;;;;;;4973172;28;20554;-86
2021/06/02 00:30:38;;;;;;;3.10;2.75;;;19.70;48.30;;;;;;4987248;28;20022;-86
2021/06/02 00:33:05;;;;;;;5.78;3.40;;;19.60;48.70;;;;;;4977065;28;20030;-85
2021/06/02 00:35:31;;;;;;;2.92;2.60;;;19.50;49.70;;;;;;4981915;28;20114;-85
2021/06/02 00:37:57;;;;;;;4.22;3.45;;;19.50;49.60;;;;;;4983253;28;20132;-85
2021/06/02 00:40:50;;;;;;;3.45;2.92;;;19.40;50.40;;;;;;4976009;28;20030;-85
2021/06/02 00:43:19;;;;;;;4.95;2.95;;;19.40;50.60;;;;;;4977411;28;20486;-85
2021/06/02 00:45:46;;;;;;;4.32;3.03;;;19.30;50.90;;;;;;4983989;28;20034;-86
2021/06/02 00:48:16;;;;;;;4.07;3.13;;;19.30;51.00;;;;;;4974647;28;20162;-86
2021/06/02 00:50:43;;;;;;;3.72;2.90;;;19.30;51.10;;;;;;4975261;28;20073;-87
2021/06/02 00:53:10;;;;;;;3.10;2.63;;;19.20;51.30;;;;;;4979772;28;20532;-86
2021/06/02 00:55:35;;;;;;;4.38;2.83;;;19.20;51.40;;;;;;4977260;28;20027;-86
2021/06/02 00:58:01;;;;;;;3.97;2.80;;;19.20;51.60;;;;;;4972372;28;20500;-87
2021/06/02 01:00:28;;;;;;;3.75;2.75;;;19.10;51.60;;;;;;4972421;28;20052;-85
2021/06/02 01:02:56;;;;;;;3.85;2.50;;;19.10;52.00;;;;;;4976120;28;20112;-86
2021/06/02 01:05:24;;;;;;;5.82;3.42;;;19.00;52.60;;;;;;4984267;28;20041;-85
2021/06/02 01:07:51;;;;;;;5.60;3.00;;;19.00;52.70;;;;;;4973283;28;20042;-87
2021/06/02 01:10:20;;;;;;;3.25;2.95;;;19.00;52.80;;;;;;4987343;28;20022;-86
2021/06/02 01:12:49;;;;;;;4.85;3.83;;;19.00;53.00;;;;;;4968103;28;20025;-86
2021/06/02 01:15:18;;;;;;;6.57;4.90;;;18.90;54.10;;;;;;4983535;28;20486;-85
2021/06/02 01:17:44;;;;;;;6.68;4.53;;;18.80;55.50;;;;;;4972710;28;20077;-87
2021/06/02 01:20:10;;;;;;;5.85;4.00;;;18.70;56.30;;;;;;4985275;28;20062;-86
2021/06/02 01:22:39;;;;;;;6.50;4.57;;;18.60;56.10;;;;;;4974273;28;20022;-86
2021/06/02 01:25:08;;;;;;;4.15;3.30;;;18.50;57.30;;;;;;4983516;28;20129;-87
2021/06/02 01:27:33;;;;;;;5.50;4.65;;;18.50;57.10;;;;;;4975498;28;20045;-86
2021/06/02 01:30:05;;;;;;;7.13;4.95;;;18.50;58.00;;;;;;4984694;28;20054;-86
2021/06/02 01:32:56;;;;;;;4.82;3.10;;;18.50;57.90;;;;;;4978067;28;20026;-87
2021/06/02 01:35:52;;;;;;;7.65;5.22;;;18.50;57.00;;;;;;4982700;28;20466;-86
2021/06/02 01:38:53;;;;;;;7.05;5.20;;;18.50;57.60;;;;;;4976223;28;20055;-87
2021/06/02 01:41:49;;;;;;;5.63;3.90;;;18.50;58.10;;;;;;4980841;28;20130;-86
2021/06/02 01:44:39;;;;;;;5.68;4.50;;;18.50;57.60;;;;;;4985343;28;20022;-87
2021/06/02 01:47:23;;;;;;;5.10;4.53;;;18.50;58.50;;;;;;4976012;28;20042;-86
2021/06/02 01:50:02;;;;;;;5.82;3.88;;;18.40;59.00;;;;;;4975871;28;20085;-86
2021/06/02 01:53:01;;;;;;;5.18;3.83;;;18.40;58.70;;;;;;4973039;28;20045;-85
2021/06/02 01:55:49;;;;;;;6.40;5.22;;;18.50;59.30;;;;;;4980719;28;20456;-86
2021/06/02 01:58:53;;;;;;;6.22;4.30;;;18.50;59.30;;;;;;4983351;28;20039;-87
2021/06/02 02:01:21;;;;;;;7.28;5.05;;;18.50;59.40;;;;;;4964693;28;20046;-86
2021/06/02 02:03:56;;;;;;;6.18;3.90;;;18.50;59.60;;;;;;4969675;28;20038;-86
2021/06/02 02:06:45;;;;;;;5.85;4.47;;;18.50;59.10;;;;;;4984348;28;20046;-86
2021/06/02 02:09:39;;;;;;;7.13;4.57;;;18.60;58.80;;;;;;4975633;28;20030;-85
2021/06/02 02:12:15;;;;;;;6.53;4.78;;;18.60;58.80;;;;;;4976260;28;20037;-85
2021/06/02 02:15:09;;;;;;;6.47;4.10;;;18.60;58.90;;;;;;4975657;28;20077;-85
2021/06/02 02:17:52;;;;;;;6.00;4.25;;;18.70;58.60;;;;;;4976946;28;20027;-86
2021/06/02 02:20:38;;;;;;;5.28;4.60;;;18.70;58.80;;;;;;4986880;28;20026;-85
2021/06/02 02:23:26;;;;;;;4.00;2.85;;;18.70;58.50;;;;;;4974142;28;20054;-85
2021/06/02 02:26:12;;;;;;;5.30;4.22;;;18.80;58.00;;;;;;4983223;28;20042;-86
2021/06/02 02:29:21;;;;;;;5.40;4.00;;;18.90;57.90;;;;;;4972377;28;20031;-85
2021/06/02 02:32:01;;;;;;;5.45;4.70;;;18.90;57.60;;;;;;4988885;28;20066;-83
2021/06/02 02:34:58;;;;;;;7.15;5.05;;;18.90;57.80;;;;;;4975022;28;20058;-85
2021/06/02 02:37:42;;;;;;;5.53;3.88;;;18.90;57.60;;;;;;4981401;28;20027;-86
2021/06/02 02:40:21;;;;;;;5.57;3.67;;;18.90;57.40;;;;;;4989040;28;20150;-86
2021/06/02 02:42:59;;;;;;;5.40;3.90;;;18.90;57.50;;;;;;4978067;28;20029;-85
2021/06/02 02:46:11;;;;;;;4.93;3.83;;;18.90;57.50;;;;;;4984397;28;20034;-85
2021/06/02 02:49:08;;;;;;;5.93;4.47;;;18.90;57.60;;;;;;4938798;28;20306;-86
2021/06/02 02:52:04;;;;;;;6.40;4.72;;;18.90;57.80;;;;;;4965262;28;20458;-84
2021/06/02 02:54:38;;;;;;;5.95;4.60;;;18.80;58.00;;;;;;4973347;28;20043;-85
2021/06/02 02:57:16;;;;;;;5.82;4.10;;;18.80;58.10;;;;;;4987954;28;20077;-85
2021/06/02 02:59:47;;;;;;;4.15;3.47;;;18.80;58.00;;;;;;4974564;28;20034;-85
2021/06/02 03:02:19;;;;;;;4.82;3.50;;;18.80;57.80;;;;;;4973837;28;20490;-85
2021/06/02 03:04:55;;;;;;;6.20;4.47;;;18.80;58.00;;;;;;4968265;28;20031;-86
2021/06/02 03:07:22;;;;;;;5.70;4.07;;;18.70;57.90;;;;;;4985077;28;20031;-85
2021/06/02 03:10:09;;;;;;;5.95;4.07;;;18.80;57.90;;;;;;4975743;28;20478;-86
2021/06/02 03:12:57;;;;;;;5.80;4.10;;;18.70;57.90;;;;;;4975847;28;20359;-87
2021/06/02 03:15:34;;;;;;;5.13;3.85;;;18.70;58.20;;;;;;4987602;28;20037;-86
2021/06/02 03:18:32;;;;;;;5.30;3.97;;;18.70;58.10;;;;;;4979239;28;20634;-86
2021/06/02 03:21:13;;;;;;;7.72;4.90;;;18.70;58.30;;;;;;4973673;28;20026;-87
2021/06/02 03:24:23;;;;;;;6.35;4.80;;;18.60;58.50;;;;;;4984522;28;20085;-86
2021/06/02 03:27:01;;;;;;;5.88;4.53;;;18.60;58.40;;;;;;4975617;28;20489;-86
2021/06/02 03:29:50;;;;;;;5.72;4.47;;;18.50;58.60;;;;;;4983498;28;20377;-87
2021/06/02 03:32:40;;;;;;;4.93;4.07;;;18.50;58.80;;;;;;4973955;28;20110;-85
2021/06/02 03:35:32;;;;;;;5.47;4.10;;;18.50;59.00;;;;;;4970189;28;20030;-86
2021/06/02 03:38:01;;;;;;;5.80;4.63;;;18.50;58.90;;;;;;4979407;28;20166;-86
2021/06/02 03:40:35;;;;;;;6.10;4.40;;;18.50;59.00;;;;;;4979742;28;20738;-86
2021/06/02 03:43:07;;;;;;;4.75;3.22;;;18.50;59.10;;;;;;4963907;28;20018;-85
2021/06/02 03:45:46;;;;;;;4.25;3.42;;;18.40;58.80;;;;;;4972444;28;20035;-85
2021/06/02 03:48:30;;;;;;;5.35;4.65;;;18.50;58.70;;;;;;4988207;28;20034;-85
2021/06/02 03:51:09;;;;;;;4.20;3.38;;;18.40;59.40;;;;;;4968525;28;20027;-85
2021/06/02 03:53:47;;;;;;;5.35;4.70;;;18.50;59.90;;;;;;4982138;28;20054;-86
2021/06/02 03:56:23;;;;;;;5.40;4.70;;;18.40;59.60;;;;;;4975926;28;20043;-86
2021/06/02 03:59:02;;;;;;;5.60;3.50;;;18.40;59.80;;;;;;4971967;28;20018;-86
2021/06/02 04:01:40;;;;;;;5.72;4.00;;;18.40;59.80;;;;;;4978289;28;20035;-86
2021/06/02 04:04:11;;;;;;;6.53;4.88;;;18.30;60.30;;;;;;4987756;28;20026;-85
2021/06/02 04:06:45;;;;;;;4.18;3.63;;;18.20;60.60;;;;;;4977986;28;20077;-85
2021/06/02 04:09:18;;;;;;;6.32;4.60;;;18.20;60.60;;;;;;4984877;28;20065;-85
2021/06/02 04:12:17;;;;;;;6.68;4.72;;;18.20;60.80;;;;;;4983664;28;20497;-85
2021/06/02 04:14:57;;;;;;;5.25;3.85;;;18.20;61.00;;;;;;4974957;28;20385;-84
2021/06/02 04:17:24;;;;;;;8.38;5.30;;;18.20;61.20;;;;;;4970363;28;20045;-86
2021/06/02 04:19:50;;;;;;;7.85;5.85;;;18.20;61.90;;;;;;4982614;28;20071;-85
2021/06/02 04:22:18;;;;;;;7.63;5.32;;;18.10;62.00;;;;;;4987943;28;20030;-86
2021/06/02 04:24:45;;;;;;;7.20;5.32;;;18.10;62.30;;;;;;4974937;28;20019;-87
2021/06/02 04:27:14;;;;;;;7.18;5.20;;;18.10;62.70;;;;;;4981964;28;20115;-86
2021/06/02 04:29:50;;;;;;;7.68;5.38;;;18.10;62.80;;;;;;4980874;28;20023;-88
2021/06/02 04:32:17;;;;;;;6.15;4.60;;;18.10;62.80;;;;;;4972666;28;20073;-86
2021/06/02 04:34:44;;;;;;;9.38;5.28;;;18.10;62.40;;;;;;4986530;28;20509;-86
2021/06/02 04:37:11;;;;;;;6.45;5.03;;;18.20;62.60;;;;;;4983239;28;20038;-86
2021/06/02 04:39:39;;;;;;;6.43;5.00;;;18.10;62.60;;;;;;4980789;28;20019;-84
2021/06/02 04:42:07;;;;;;;6.75;5.60;;;18.10;62.50;;;;;;4972247;28;20038;-83
2021/06/02 04:44:34;;;;;;;6.72;4.60;;;18.10;62.50;;;;;;4972906;28;20022;-84
2021/06/02 04:47:03;;;;;;;6.95;4.90;;;18.20;63.00;;;;;;4984063;28;20038;-84
2021/06/02 04:49:56;;;;;;;8.35;5.60;;;18.20;62.10;;;;;;4976401;28;20026;-85
2021/06/02 04:52:39;;;;;;;8.27;5.45;;;18.30;62.10;;;;;;4970345;28;20053;-84
2021/06/02 04:55:26;;;;;;;7.07;5.35;;;18.50;61.70;;;;;;4965648;28;20029;-85
2021/06/02 04:58:10;;;;;;;6.55;4.60;;;19.30;60.10;;;;;;4972097;28;20113;-85
2021/06/02 05:00:57;;;;;;;7.13;5.00;;;19.90;58.20;;;;;;4986031;28;20496;-88
2021/06/02 05:04:14;;;;;;;7.32;5.65;;;20.30;56.70;;;;;;4978894;28;20026;-86
2021/06/02 05:07:04;;;;;;;5.20;4.50;;;20.70;55.30;;;;;;4949879;28;20192;-86
2021/06/02 05:09:33;;;;;;;6.97;4.43;;;21.10;54.30;;;;;;4980800;28;20025;-87
2021/06/02 05:12:14;;;;;;;7.18;5.13;;;21.50;53.40;;;;;;4970857;28;20061;-86
2021/06/02 05:14:58;;;;;;;5.18;4.20;;;21.80;52.60;;;;;;4965978;28;20046;-86
2021/06/02 05:17:41;;;;;;;5.50;4.70;;;21.90;51.90;;;;;;4976085;28;20437;-89
2021/06/02 05:23:22;;;;;;;7.13;4.25;;;22.30;51.30;;;;;;4970961;28;20041;-86
2021/06/02 05:26:15;;;;;;;6.10;4.35;;;22.60;50.80;;;;;;4979437;28;20525;-85
2021/06/02 05:29:02;;;;;;;4.20;3.40;;;22.80;50.20;;;;;;4970100;28;20553;-84
2021/06/02 05:31:49;;;;;;;6.28;4.50;;;23.20;49.60;;;;;;4965263;28;20023;-86
2021/06/02 05:34:52;;;;;;;5.90;4.60;;;23.30;49.00;;;;;;4962921;28;20027;-86
2021/06/02 05:37:55;;;;;;;6.00;4.90;;;23.20;48.90;;;;;;4963210;28;20031;-89
2021/06/02 05:40:32;;;;;;;6.50;4.95;;;22.90;48.80;;;;;;4963653;28;20036;-90
2021/06/02 05:43:25;;;;;;;7.15;4.40;;;22.90;49.30;;;;;;4969856;28;20077;-90
2021/06/02 05:46:17;;;;;;;5.50;4.50;;;23.20;49.10;;;;;;4978894;28;20410;-88
2021/06/02 05:52:46;;;;;;;4.82;3.70;;;23.40;48.50;;;;;;5099428;22;20048;-89
2021/06/02 05:55:56;;;;;;;5.95;4.35;;;23.40;48.80;;;;;;4994806;28;20117;-90
2021/06/02 05:58:52;;;;;;;5.15;4.38;;;23.40;48.50;;;;;;4968420;28;20763;-89
2021/06/02 06:01:52;;;;;;;8.00;5.82;;;23.40;48.40;;;;;;5008693;28;20034;-89
2021/06/02 06:05:10;;;;;;;7.50;5.00;;;23.10;48.70;;;;;;5011573;28;20036;-91
2021/06/02 06:07:57;;;;;;;6.45;5.20;;;23.10;48.90;;;;;;4994284;28;20037;-88
2021/06/02 06:11:00;;;;;;;7.00;4.72;;;23.20;49.10;;;;;;4993613;28;20732;-86
2021/06/02 06:13:25;;;;;;;;;;;23.00;48.90;;;;;;5001399;28;20116;-89
2021/06/02 06:16:09;;;;;;;5.60;3.88;;;22.90;49.30;;;;;;5015125;28;19957;-89
2021/06/02 06:18:53;;;;;;;4.00;3.20;;;23.00;49.40;;;;;;5015539;28;20258;-89
2021/06/02 06:21:43;;;;;;;4.68;3.65;;;23.10;49.30;;;;;;5014332;28;20045;-87
2021/06/02 06:24:28;;;;;;;4.50;3.33;;;23.20;48.80;;;;;;4995077;28;20034;-88
2021/06/02 06:27:02;;;;;;;5.70;4.38;;;23.10;49.00;;;;;;5006003;28;20142;-89
2021/06/02 06:29:52;;;;;;;3.72;3.28;;;22.90;48.70;;;;;;5015082;28;20109;-88
2021/06/02 06:32:19;;;;;;;4.20;3.75;;;22.80;49.30;;;;;;4999889;28;20084;-89
2021/06/02 06:34:47;;;;;;;4.03;3.10;;;22.80;49.40;;;;;;5020409;28;20464;-89
2021/06/02 06:37:15;;;;;;;5.80;3.97;;;22.90;49.20;;;;;;5027757;28;20018;-89
2021/06/02 06:39:51;;;;;;;6.03;4.22;;;23.10;49.00;;;;;;4996647;28;20030;-90
2021/06/02 06:42:29;;;;;;;6.35;4.53;;;23.00;49.40;;;;;;5001215;28;20029;-93
2021/06/02 06:44:58;;;;;;;5.95;4.65;;;23.10;48.80;;;;;;5016285;28;20405;-90
2021/06/02 06:47:25;;;;;;;5.18;3.92;;;23.00;48.70;;;;;;5017517;28;20032;-90
2021/06/02 06:49:54;;;;;;;4.45;3.00;;;22.90;48.40;;;;;;5001728;28;20377;-91
2021/06/02 06:52:24;;;;;;;5.05;4.00;;;23.00;48.50;;;;;;5017474;28;20044;-89
2021/06/02 06:54:52;;;;;;;3.95;3.38;;;23.00;48.00;;;;;;5035016;28;20177;-89
2021/06/02 06:57:21;;;;;;;4.82;3.40;;;23.20;48.00;;;;;;5027928;28;20115;-92
2021/06/02 06:59:48;;;;;;;5.63;3.72;;;23.40;48.00;;;;;;5039675;28;20053;-88
2021/06/02 07:02:15;;;;;;;3.60;3.15;;;23.50;47.30;;;;;;5005522;28;20022;-91
2021/06/02 07:04:42;;;;;;;4.97;3.85;;;23.60;47.00;;;;;;5023941;28;20028;-88
2021/06/02 07:07:09;;;;;;;3.90;3.05;;;23.60;46.40;;;;;;5013314;28;20129;-88
2021/06/02 07:09:35;;;;;;;3.60;3.00;;;23.80;46.70;;;;;;5019542;28;20018;-89
2021/06/02 07:12:01;;;;;;;5.82;4.10;;;24.00;46.60;;;;;;5022029;28;20037;-89
2021/06/02 07:14:31;;;;;;;5.30;4.30;;;24.00;45.90;;;;;;5019164;28;20018;-90
2021/06/02 07:17:05;;;;;;;6.57;4.35;;;24.00;45.50;;;;;;5008441;28;20139;-91
2021/06/02 07:19:33;;;;;;;4.60;3.70;;;23.80;45.50;;;;;;5020095;28;20042;-93
2021/06/02 07:22:01;;;;;;;5.75;3.50;;;23.90;45.40;;;;;;5030500;28;20022;-90
2021/06/02 07:24:27;;;;;;;3.10;2.80;;;24.00;45.00;;;;;;5000229;28;20407;-89
2021/06/02 07:26:53;;;;;;;3.65;2.83;;;24.10;44.70;;;;;;5016758;28;20488;-90
2021/06/02 07:29:19;;;;;;;5.13;3.30;;;24.30;44.60;;;;;;5013040;28;20072;-88
2021/06/02 07:31:46;;;;;;;4.50;3.30;;;24.30;44.30;;;;;;5003039;28;20030;-96
2021/06/02 07:34:13;;;;;;;3.83;3.05;;;24.40;44.20;;;;;;5010671;28;20009;-95
2021/06/02 07:36:38;;;;;;;4.10;2.90;;;24.40;44.30;;;;;;5008454;28;20054;-93
2021/06/02 07:39:05;;;;;;;3.80;3.00;;;24.50;44.30;;;;;;5012113;28;20021;-95
2021/06/02 07:41:31;;;;;;;4.82;4.20;;;24.50;44.40;;;;;;4995996;28;20033;-92
2021/06/02 07:43:56;;;;;;;5.63;4.40;;;24.60;43.90;;;;;;4986604;28;20018;-91
2021/06/02 07:46:22;;;;;;;3.92;2.50;;;24.50;44.10;;;;;;5000437;28;20041;-94
2021/06/02 07:48:48;;;;;;;3.92;3.10;;;24.60;44.50;;;;;;5038482;28;20021;-93
2021/06/02 07:51:14;;;;;;;3.83;3.03;;;24.70;44.10;;;;;;5009684;28;20050;-91
2021/06/02 07:53:40;;;;;;;4.68;3.35;;;24.90;44.10;;;;;;5000073;28;20022;-92
2021/06/02 07:56:06;;;;;;;4.47;3.78;;;24.80;44.00;;;;;;5014390;28;20025;-92
2021/06/02 07:58:33;;;;;;;5.13;3.28;;;24.80;43.70;;;;;;5014039;28;20014;-94
2021/06/02 08:00:59;;;;;;;5.65;4.00;;;24.90;44.10;;;;;;5014846;28;20113;-94
2021/06/02 08:03:25;;;;;;;6.57;4.68;;;25.00;43.90;;;;;;5024644;28;20045;-94
2021/06/02 08:05:50;;;;;;;5.38;3.95;;;25.00;43.60;;;;;;5009886;28;20032;-95
2021/06/02 08:08:17;;;;;;;6.22;3.50;;;25.00;43.90;;;;;;5014332;28;20036;-92
2021/06/02 08:10:43;;;;;;;4.88;3.42;;;25.10;43.80;;;;;;5015772;28;20081;-93
2021/06/02 08:13:10;;;;;;;5.43;3.85;;;25.20;43.50;;;;;;4994109;28;20563;-93
2021/06/02 08:15:36;;;;;;;5.45;3.85;;;25.20;42.40;;;;;;5004528;28;20212;-94
2021/06/02 08:18:02;;;;;;;4.28;3.33;;;25.10;41.90;;;;;;5003271;28;20030;-94
2021/06/02 08:20:28;;;;;;;4.20;2.60;;;25.10;42.10;;;;;;4997892;28;20428;-94
2021/06/02 08:22:54;;;;;;;4.53;3.00;;;25.30;42.20;;;;;;5034403;28;20029;-93
2021/06/02 08:25:19;;;;;;;4.53;3.38;;;25.50;42.30;;;;;;5023838;28;20488;-93
2021/06/02 08:27:46;;;;;;;5.70;3.50;;;25.50;42.20;;;;;;4992919;28;20105;-94
2021/06/02 08:30:12;;;;;;;4.40;3.08;;;25.50;40.80;;;;;;4977189;28;20109;-93
2021/06/02 08:32:38;;;;;;;4.00;2.88;;;25.50;41.10;;;;;;5013443;28;20030;-94
2021/06/02 08:35:07;;;;;;;5.43;3.00;;;25.70;41.10;;;;;;5017628;28;20467;-93
2021/06/02 08:37:32;;;;;;;2.88;2.58;;;25.90;41.10;;;;;;5004402;28;20042;-93
2021/06/02 08:39:58;;;;;;;4.97;3.97;;;26.10;41.10;;;;;;4996549;28;20112;-92
2021/06/02 08:42:24;;;;;;;6.22;3.55;;;26.20;39.70;;;;;;5013999;28;20103;-92
2021/06/02 08:44:52;;;;;;;3.90;3.15;;;26.10;40.30;;;;;;5013430;28;20033;-92
2021/06/02 08:47:17;;;;;;;4.40;3.08;;;25.80;38.50;;;;;;5013821;28;20120;-94
2021/06/02 08:49:44;;;;;;;4.90;3.78;;;25.80;39.50;;;;;;5010412;28;20125;-92
2021/06/02 08:52:10;;;;;;;4.82;3.40;;;25.80;38.50;;;;;;5004434;28;20117;-92
2021/06/02 08:54:36;;;;;;;4.07;3.33;;;25.70;37.80;;;;;;4984149;28;20507;-92
2021/06/02 08:57:05;;;;;;;5.40;3.42;;;25.50;37.90;;;;;;5007457;28;20026;-93
2021/06/02 08:59:33;;;;;;;5.00;3.03;;;25.30;38.10;;;;;;5001150;28;20018;-92
2021/06/02 09:01:59;;;;;;;3.42;2.50;;;25.50;39.00;;;;;;5005013;28;20049;-92
2021/06/02 09:04:26;;;;;;;4.60;3.40;;;25.60;39.50;;;;;;4990710;28;20041;-93
2021/06/02 09:06:53;;;;;;;5.00;3.33;;;25.60;38.70;;;;;;4990694;28;20026;-93
2021/06/02 09:09:21;;;;;;;5.07;3.10;;;25.50;37.60;;;;;;5009801;28;20018;-93
2021/06/02 09:11:49;;;;;;;3.53;2.40;;;25.40;38.00;;;;;;5009795;28;20503;-93
2021/06/02 09:14:35;;;;;;;5.75;3.72;;;25.50;39.00;;;;;;5007310;28;20021;-94
2021/06/02 09:17:05;;;;;;;6.03;4.47;;;25.70;39.90;;;;;;5011377;28;20021;-94
2021/06/02 09:19:49;;;;;;;3.85;2.60;;;25.70;39.80;;;;;;5008152;28;20030;-92
2021/06/02 09:22:17;;;;;;;5.22;2.80;;;25.90;39.50;;;;;;4991245;28;20033;-95
2021/06/02 09:24:52;;;;;;;3.67;2.80;;;26.10;39.20;;;;;;5009506;28;20036;-92
2021/06/02 09:27:48;;;;;;;4.75;3.38;;;26.30;39.10;;;;;;5009796;28;20064;-92
2021/06/02 09:30:21;;;;;;;3.60;2.65;;;26.50;38.70;;;;;;4979397;28;20149;-92
2021/06/02 09:32:46;;;;;;;6.85;3.63;;;26.70;38.80;;;;;;5000329;28;20500;-94
2021/06/02 09:35:18;;;;;;;4.70;2.92;;;26.80;38.40;;;;;;5017207;28;20048;-96
2021/06/02 09:37:48;;;;;;;;;;;26.90;38.10;;;;;;5005828;28;20460;-91
2021/06/02 09:40:25;;;;;;;6.05;3.42;;;26.80;37.70;;;;;;5007187;28;19914;-93
2021/06/02 09:42:51;;;;;;;6.43;3.47;;;26.80;37.60;;;;;;5007561;28;20065;-87
2021/06/02 09:45:18;;;;;;;6.25;3.70;;;26.60;37.20;;;;;;5008054;28;20022;-86
2021/06/02 09:47:46;;;;;;;3.80;2.67;;;26.60;38.10;;;;;;5003305;28;20554;-87
2021/06/02 09:50:16;;;;;;;3.20;2.38;;;26.50;35.90;;;;;;4989106;28;20504;-87
2021/06/02 09:52:49;;;;;;;3.38;2.20;;;26.70;36.00;;;;;;4993948;28;20385;-87
2021/06/02 09:55:15;;;;;;;3.38;2.50;;;26.90;36.50;;;;;;4987971;28;20117;-87
2021/06/02 09:57:40;;;;;;;4.07;2.90;;;27.20;36.60;;;;;;5004698;28;20038;-87
2021/06/02 10:00:08;;;;;;;4.88;2.40;;;27.40;36.90;;;;;;5007408;28;20049;-92
2021/06/02 10:02:34;;;;;;;4.15;2.85;;;27.60;37.20;;;;;;5012592;28;20417;-89
2021/06/02 10:05:03;;;;;;;3.80;3.22;;;27.90;37.30;;;;;;5012139;28;20064;-88
2021/06/02 10:07:29;;;;;;;7.82;4.10;;;28.00;37.30;;;;;;5009325;28;20034;-87
2021/06/02 10:10:05;;;;;;;4.57;2.90;;;27.80;37.10;;;;;;5008611;28;20024;-90
2021/06/02 10:12:31;;;;;;;5.80;3.38;;;27.60;37.40;;;;;;5009209;28;20049;-89
2021/06/02 10:15:00;;;;;;;3.47;3.00;;;27.50;37.60;;;;;;4991485;28;20022;-96
2021/06/02 10:17:28;;;;;;;3.83;2.90;;;27.50;38.00;;;;;;5013110;28;20535;-93
2021/06/02 10:19:55;;;;;;;4.35;3.50;;;27.60;37.90;;;;;;4985317;28;20034;-94
2021/06/02 10:22:23;;;;;;;3.00;2.08;;;27.50;36.60;;;;;;5012107;28;20072;-91
2021/06/02 10:24:51;;;;;;;13.25;11.27;;;27.70;37.00;;;;;;5012287;28;20078;-93
2021/06/02 10:27:19;;;;;;;5.07;3.03;;;27.90;36.90;;;;;;5002089;28;20045;-94
2021/06/02 10:29:45;;;;;;;3.30;2.50;;;27.70;36.30;;;;;;4990490;28;20084;-91
2021/06/02 10:32:11;;;;;;;2.33;2.10;;;27.90;36.30;;;;;;5013176;28;20025;-91
2021/06/02 10:34:37;;;;;;;3.25;2.30;;;28.00;36.10;;;;;;5010174;28;20458;-90
2021/06/02 10:37:03;;;;;;;3.92;2.10;;;28.10;35.60;;;;;;5014461;28;20076;-90
2021/06/02 10:39:32;;;;;;;2.45;2.10;;;28.30;34.90;;;;;;5003573;28;20036;-91
2021/06/02 10:42:14;;;;;;;2.05;1.55;;;28.00;34.00;;;;;;5006748;28;20033;-90
2021/06/02 10:44:45;;;;;;;3.72;2.38;;;28.30;34.40;;;;;;5017185;28;20022;-92
2021/06/02 10:47:11;;;;;;;3.63;2.63;;;28.10;34.00;;;;;;5005897;28;20117;-91
2021/06/02 10:49:37;;;;;;;4.00;2.20;;;28.10;34.20;;;;;;5010429;28;20175;-91
2021/06/02 10:52:06;;;;;;;3.33;2.00;;;28.20;34.90;;;;;;5018924;28;20084;-93
2021/06/02 10:54:40;;;;;;;3.50;2.38;;;28.40;34.90;;;;;;5003074;28;20022;-92
2021/06/02 10:57:07;;;;;;;2.10;1.80;;;28.40;33.40;;;;;;4999430;28;20044;-93
2021/06/02 10:59:35;;;;;;;5.43;3.30;;;28.60;33.80;;;;;;5024946;28;20113;-95
2021/06/02 11:02:09;;;;;;;2.90;2.35;;;28.50;32.80;;;;;;5000959;28;20504;-92
2021/06/02 11:04:42;;;;;;;2.63;2.10;;;28.20;33.10;;;;;;4999901;28;20025;-92
2021/06/02 11:07:15;;;;;;;4.53;2.80;;;28.30;33.80;;;;;;5011707;28;20567;-93
2021/06/02 11:09:54;;;;;;;3.78;2.63;;;28.20;33.60;;;;;;5010594;28;20510;-94
2021/06/02 11:12:22;;;;;;;2.40;2.20;;;28.10;33.90;;;;;;5001391;28;20022;-93
2021/06/02 11:14:48;;;;;;;3.80;2.25;;;28.10;34.30;;;;;;4998858;28;20033;-93
2021/06/02 11:17:18;;;;;;;2.15;1.90;;;28.20;33.70;;;;;;5002982;28;20022;-96
2021/06/02 11:19:48;;;;;;;2.25;1.90;;;28.50;33.10;;;;;;5012514;28;20040;-95
2021/06/02 11:22:21;;;;;;;2.22;1.88;;;28.60;32.40;;;;;;4994932;28;20084;-92
2021/06/02 11:24:49;;;;;;;2.22;1.33;;;28.80;31.90;;;;;;5013569;28;20125;-95
2021/06/02 11:27:15;;;;;;;2.55;1.50;;;29.00;31.90;;;;;;4992866;28;20322;-96
2021/06/02 11:29:53;;;;;;;2.25;2.05;;;29.20;31.60;;;;;;5002856;28;20033;-96
2021/06/02 11:32:23;;;;;;;1.88;1.73;;;29.10;30.60;;;;;;4997502;28;20485;-92
2021/06/02 11:34:57;;;;;;;2.05;1.85;;;29.30;31.30;;;;;;5009258;28;20022;-95
2021/06/02 11:37:27;;;;;;;1.63;1.50;;;29.30;30.90;;;;;;5013969;28;20038;-95
2021/06/02 11:39:56;;;;;;;2.33;1.80;;;29.40;31.30;;;;;;4993828;28;20469;-95
2021/06/02 11:42:39;;;;;;;1.80;1.60;;;29.60;30.90;;;;;;4986322;28;20488;-94
2021/06/02 11:45:07;;;;;;;2.28;1.90;;;29.60;30.10;;;;;;5017714;28;20018;-93
2021/06/02 11:47:35;;;;;;;3.58;1.67;;;29.60;29.60;;;;;;5027647;28;20033;-93
2021/06/02 11:50:07;;;;;;;3.30;1.50;;;29.50;29.80;;;;;;5000006;28;20022;-95
2021/06/02 11:52:32;;;;;;;;;;;29.70;29.90;;;;;;5012398;28;20033;-92
2021/06/02 11:55:16;;;;;;;2.00;1.80;;;29.80;29.50;;;;;;5019798;28;19917;-94
2021/06/02 11:57:50;;;;;;;3.72;1.90;;;29.80;29.80;;;;;;5018056;28;20034;-96
2021/06/02 12:00:19;;;;;;;3.05;2.00;;;29.90;29.50;;;;;;4993230;28;20051;-92
2021/06/02 12:02:46;;;;;;;4.53;1.80;;;29.90;29.00;;;;;;5009496;28;20719;-93
2021/06/02 12:05:28;;;;;;;4.25;1.70;;;29.80;29.40;;;;;;4994402;28;20405;-95
2021/06/02 12:08:04;;;;;;;3.38;2.00;;;30.00;29.40;;;;;;5010450;28;20497;-94
2021/06/02 12:10:32;;;;;;;2.50;1.50;;;30.00;29.00;;;;;;5015528;28;20085;-92
2021/06/02 12:12:59;;;;;;;1.85;1.50;;;30.20;29.20;;;;;;5000474;28;20025;-93
2021/06/02 12:15:27;;;;;;;1.67;1.58;;;30.30;29.00;;;;;;5015540;28;20052;-93
2021/06/02 12:17:53;;;;;;;2.05;1.13;;;30.40;28.90;;;;;;5028106;28;20025;-92
2021/06/02 12:20:24;;;;;;;2.25;1.40;;;30.60;29.00;;;;;;5020102;28;20060;-95
2021/06/02 12:22:51;;;;;;;3.03;2.10;;;30.80;28.60;;;;;;5006079;28;20033;-94
2021/06/02 12:25:22;;;;;;;1.60;1.40;;;30.50;28.00;;;;;;5008477;28;20547;-95
2021/06/02 12:27:50;;;;;;;2.38;1.60;;;30.50;28.60;;;;;;5018183;28;20039;-86
2021/06/02 12:30:24;;;;;;;2.58;1.83;;;30.70;28.80;;;;;;4994928;28;20022;-91
2021/06/02 12:32:52;;;;;;;2.53;1.48;;;30.80;28.20;;;;;;5015380;28;20072;-91
2021/06/02 12:35:36;;;;;;;2.35;1.80;;;30.40;28.20;;;;;;5010414;28;20030;-91
2021/06/02 12:38:11;;;;;;;2.67;1.70;;;30.30;28.40;;;;;;4992486;28;20022;-93
2021/06/02 12:40:49;;;;;;;3.35;1.83;;;30.00;28.30;;;;;;4991852;28;20531;-93
2021/06/02 12:43:19;;;;;;;2.58;1.80;;;29.90;28.10;;;;;;5016142;28;20057;-88
2021/06/02 12:45:46;;;;;;;2.33;1.50;;;29.90;28.20;;;;;;5012735;28;20080;-95
2021/06/02 12:48:15;;;;;;;2.72;2.03;;;30.00;28.50;;;;;;5011348;28;20034;-88
2021/06/02 12:50:50;;;;;;;2.97;1.63;;;30.20;28.50;;;;;;5021689;28;20038;-90
2021/06/02 12:53:17;;;;;;;2.17;1.60;;;29.90;28.60;;;;;;5011982;28;20025;-89
2021/06/02 12:55:46;;;;;;;1.92;1.50;;;30.10;29.10;;;;;;5018136;28;20033;-84
2021/06/02 12:58:16;;;;;;;1.67;1.58;;;30.20;28.90;;;;;;5022495;28;20032;-86
2021/06/02 13:00:47;;;;;;;4.25;1.90;;;30.30;29.00;;;;;;4996582;28;20504;-86
2021/06/02 13:03:20;;;;;;;1.50;1.40;;;30.20;28.50;;;;;;5011079;28;20018;-87
2021/06/02 13:05:47;;;;;;;3.50;1.85;;;30.30;29.00;;;;;;5012215;28;20300;-89
2021/06/02 13:08:14;;;;;;;2.25;1.60;;;30.50;29.00;;;;;;5012516;28;20033;-91
2021/06/02 13:10:45;;;;;;;2.53;1.73;;;30.70;28.90;;;;;;5017071;28;20096;-95
2021/06/02 13:13:14;;;;;;;2.50;1.85;;;30.70;28.90;;;;;;5007548;28;20022;-95
2021/06/02 13:15:42;;;;;;;1.60;1.50;;;30.50;28.10;;;;;;5017702;28;20106;-93
2021/06/02 13:18:31;;;;;;;3.35;2.00;;;30.40;28.70;;;;;;4999049;28;20390;-87
2021/06/02 13:21:08;;;;;;;3.22;1.90;;;30.40;28.50;;;;;;5006711;28;20017;-91
2021/06/02 13:23:34;;;;;;;2.30;1.75;;;30.50;28.60;;;;;;5015359;28;20030;-90
2021/06/02 13:26:01;;;;;;;3.45;2.25;;;30.70;28.80;;;;;;5018573;28;20034;-91
2021/06/02 13:28:28;;;;;;;2.42;1.85;;;30.80;28.30;;;;;;5017507;28;20052;-89
2021/06/02 13:30:58;;;;;;;4.00;1.75;;;30.70;28.20;;;;;;5012960;28;20029;-90